Lubbock, TX (79401)

2:05 AM CDT on August 26, 2016 (GMT -0500)
APRSWXNET | | Change Station

Elev 3221 ft 33.58 °N, 101.88 °W | Updated 18 minutes ago

Heavy Rain
Heavy Rain Mist
65 °F
Feels Like 65 °F
N
1
Wind Variable Wind from ENE
Gusts 16.0 mph

Today
High -- | Low -- °F
--% Chance of Precip.
Yesterday
High -- | Low -- °F
Precip. -- in
Pressure 30.05 in
Visibility 6.0 miles
Clouds Few 2000 ft
Few 4700 ft
Mostly Cloudy 9500 ft
Overcast 13000 ft
Dew Point 62 °F
Humidity 91%
Rainfall in
Snow Depth Not available.
7:17 AM 8:19 PM
Last Quarter, 37% visible
METAR KLBB 260653Z VRB05KT 6SM +RA BR FEW020 FEW047 BKN095 OVC130 18/17 A3018 RMK AO2 SLP175 P0008 T01780172
Pressure 30.05 in
Visibility 6.0 miles
Clouds Few 2000 ft
Few 4700 ft
Mostly Cloudy 9500 ft
Overcast 13000 ft
Dew Point 62 °F
Humidity 91%
Rainfall in
Snow Depth Not available.
7:17 AM 8:19 PM
Last Quarter, 37% visible
METAR KLBB 260653Z VRB05KT 6SM +RA BR FEW020 FEW047 BKN095 OVC130 18/17 A3018 RMK AO2 SLP175 P0008 T01780172

10-Day Weather Forecast

Almanac

Astronomy

Aug. 26, 2016 Rise Set
Actual Time
Civil Twilight
Nautical Twilight
Astronomical Twilight
Moon
Length of Visible Light
Length of Day
Tomorrow will be .
, % of the Moon is Illuminated

Today's Extremes

State Highs State Lows

Community

WunderPhotos

Upload Photos

1,935,063 photos uploaded!

WunderBlog® & News

Nearby

Air Quality

  Air Quality AQ Index Pollutant
Not available.

Snow Depth

Station Depth Elevation

Earthquake Activity

City Distance Mag. Time & Date
Minimum magnitude displayed is 2.5.

Coastal Water Temperatures

Place Temperature

Stations

Nearby Weather Stations

Station Location Temp. Windchill Dew Point Humidity Wind Precip. Elev Updated Type
                   

Watches & Warnings

There are currently no watches in effect.